createdAt,value
2019-01-05T00:01:12.594Z,4.43
2019-01-05T00:04:13.343Z,4.70
2019-01-05T00:07:09.587Z,4.40
2019-01-05T00:10:08.728Z,4.80
2019-01-05T00:12:57.910Z,4.67
2019-01-05T00:15:44.205Z,4.67
2019-01-05T00:18:33.244Z,4.07
2019-01-05T00:21:40.718Z,4.33
2019-01-05T00:24:28.405Z,4.07
2019-01-05T00:27:22.090Z,4.63
2019-01-05T00:30:10.433Z,4.17
2019-01-05T00:33:01.552Z,4.23
2019-01-05T00:36:26.816Z,4.90
2019-01-05T00:39:29.204Z,4.07
2019-01-05T00:42:22.687Z,5.10
2019-01-05T00:45:31.597Z,4.00
2019-01-05T00:48:30.969Z,4.00
2019-01-05T00:51:22.327Z,4.50
2019-01-05T00:54:25.691Z,4.57
2019-01-05T00:57:15.602Z,4.57
2019-01-05T01:00:15.127Z,4.33
2019-01-05T01:03:14.567Z,4.23
2019-01-05T01:06:14.091Z,4.20
2019-01-05T01:09:06.932Z,3.67
2019-01-05T01:11:55.982Z,3.30
2019-01-05T01:15:01.649Z,3.60
2019-01-05T01:18:04.999Z,5.10
2019-01-05T01:21:10.507Z,3.67
2019-01-05T01:24:13.332Z,3.20
2019-01-05T01:27:02.641Z,3.20
2019-01-05T01:30:07.818Z,3.30
2019-01-05T01:32:56.845Z,3.20
2019-01-05T01:35:56.361Z,3.30
2019-01-05T01:38:42.081Z,3.70
2019-01-05T01:42:02.775Z,3.80
2019-01-05T01:44:53.116Z,3.40
2019-01-05T01:47:43.639Z,3.33
2019-01-05T01:50:33.828Z,3.37
2019-01-05T01:53:30.877Z,4.20
2019-01-05T01:56:34.624Z,3.70
2019-01-05T01:59:28.111Z,3.57
2019-01-05T02:02:36.064Z,3.10
2019-01-05T02:08:29.961Z,3.40
2019-01-05T02:11:15.713Z,3.20
2019-01-05T02:14:22.813Z,3.20
2019-01-05T02:17:49.277Z,3.60
2019-01-05T02:20:52.899Z,3.37
2019-01-05T02:24:14.067Z,3.10
2019-01-05T02:27:56.484Z,3.10
2019-01-05T02:31:11.042Z,3.00
2019-01-05T02:34:48.043Z,2.80
2019-01-05T02:38:40.247Z,3.20
2019-01-05T02:42:36.848Z,3.00
2019-01-05T02:46:10.277Z,3.30
2019-01-05T02:49:53.450Z,2.70
2019-01-05T02:53:47.226Z,3.13
2019-01-05T02:57:18.280Z,2.60
2019-01-05T03:00:38.079Z,3.30
2019-01-05T03:04:26.104Z,2.83
2019-01-05T03:08:27.439Z,2.70
2019-01-05T03:11:52.493Z,2.77
2019-01-05T03:15:23.028Z,2.73
2019-01-05T03:18:59.274Z,3.10
2019-01-05T03:22:40.378Z,2.80
2019-01-05T03:26:11.375Z,2.43
2019-01-05T03:29:42.873Z,2.70
2019-01-05T03:33:14.967Z,2.70
2019-01-05T03:37:03.543Z,2.73
2019-01-05T03:40:42.798Z,2.73
2019-01-05T03:44:28.356Z,2.83
2019-01-05T03:48:21.172Z,2.73
2019-01-05T03:51:54.379Z,2.70
2019-01-05T03:55:29.718Z,2.70
2019-01-05T03:58:56.316Z,2.50
2019-01-05T04:02:21.218Z,2.50
2019-01-05T04:06:04.472Z,3.00
2019-01-05T04:09:44.607Z,2.60
2019-01-05T04:13:14.970Z,2.70
2019-01-05T04:16:45.032Z,2.97
2019-01-05T04:20:30.637Z,2.87
2019-01-05T04:24:19.206Z,2.60
2019-01-05T04:28:01.536Z,2.83
2019-01-05T04:31:50.598Z,2.90
2019-01-05T04:35:16.688Z,2.80
2019-01-05T04:38:31.998Z,2.80
2019-01-05T04:42:03.267Z,2.70
2019-01-05T04:45:17.853Z,2.63
2019-01-05T04:48:56.714Z,2.63
2019-01-05T04:52:26.667Z,2.93
2019-01-05T04:55:43.050Z,2.70
2019-01-05T04:59:25.989Z,2.60
2019-01-05T05:02:47.615Z,2.40
2019-01-05T05:06:26.309Z,3.00
2019-01-05T05:10:07.237Z,2.60
2019-01-05T05:13:38.297Z,2.40
2019-01-05T05:17:08.778Z,2.50
2019-01-05T05:20:32.906Z,2.60
2019-01-05T05:23:44.183Z,2.60
2019-01-05T05:27:05.560Z,2.93
2019-01-05T05:30:47.997Z,2.60
2019-01-05T05:34:26.516Z,2.63
2019-01-05T05:37:58.321Z,2.70
2019-01-05T05:41:41.693Z,2.83
2019-01-05T05:45:13.568Z,2.60
2019-01-05T05:48:55.514Z,2.73
2019-01-05T05:52:21.576Z,2.50
2019-01-05T05:55:37.057Z,2.50
2019-01-05T05:59:29.477Z,2.50
2019-01-05T06:03:05.512Z,2.80
2019-01-05T06:06:30.513Z,2.60
2019-01-05T06:10:08.343Z,2.50
2019-01-05T06:13:49.631Z,2.57
2019-01-05T06:17:42.840Z,3.47
2019-01-05T06:21:35.349Z,2.57
2019-01-05T06:25:11.137Z,2.30
2019-01-05T06:28:27.793Z,2.70
2019-01-05T06:31:51.489Z,2.83
2019-01-05T06:35:26.405Z,2.70
2019-01-05T06:39:10.301Z,2.67
2019-01-05T06:42:52.690Z,2.77
2019-01-05T06:46:28.339Z,2.20
2019-01-05T06:50:17.500Z,2.70
2019-01-05T06:53:39.303Z,2.93
2019-01-05T06:57:01.216Z,2.90
2019-01-05T07:00:43.934Z,2.90
2019-01-05T07:04:16.072Z,2.73
2019-01-05T07:07:54.080Z,2.70
2019-01-05T07:11:39.908Z,3.10
2019-01-05T07:15:18.436Z,2.77
2019-01-05T07:18:47.799Z,2.90
2019-01-05T07:22:34.187Z,3.03
2019-01-05T07:26:32.569Z,3.10
2019-01-05T07:30:07.782Z,3.67
2019-01-05T07:33:35.889Z,3.40
2019-01-05T07:36:49.248Z,3.40
2019-01-05T07:40:35.639Z,3.50
2019-01-05T07:44:07.132Z,3.03
2019-01-05T07:47:22.691Z,3.27
2019-01-05T07:50:50.584Z,3.10
2019-01-05T07:54:15.579Z,3.40
2019-01-05T07:58:04.692Z,3.50
2019-01-05T08:01:27.242Z,3.60
2019-01-05T08:05:07.193Z,3.50
2019-01-05T08:08:38.571Z,3.50
2019-01-05T08:11:54.012Z,4.70
2019-01-05T08:15:20.677Z,4.70
2019-01-05T08:19:01.024Z,4.47
2019-01-05T08:22:27.865Z,3.77
2019-01-05T08:26:12.628Z,4.30
2019-01-05T08:29:47.681Z,3.93
2019-01-05T08:33:21.636Z,4.73
2019-01-05T08:36:54.775Z,4.10
2019-01-05T08:40:29.768Z,4.53
2019-01-05T08:44:28.950Z,5.63
2019-01-05T08:48:02.551Z,7.90
2019-01-05T08:51:40.376Z,6.53
2019-01-05T08:55:16.829Z,5.80
2019-01-05T08:58:57.666Z,5.50
2019-01-05T09:02:27.686Z,6.33
2019-01-05T09:05:52.931Z,5.50
2019-01-05T09:09:09.546Z,8.00
2019-01-05T09:12:37.445Z,6.97
2019-01-05T09:16:06.310Z,5.73
2019-01-05T09:19:46.460Z,6.73
2019-01-05T09:23:23.832Z,6.03
2019-01-05T09:27:25.984Z,6.73
2019-01-05T09:31:09.516Z,5.47
2019-01-05T09:34:42.609Z,7.13
2019-01-05T09:38:17.414Z,5.23
2019-01-05T09:41:58.535Z,5.17
2019-01-05T09:45:23.711Z,6.40
2019-01-05T09:49:09.257Z,6.50
2019-01-05T09:52:41.647Z,7.03
2019-01-05T09:56:13.283Z,6.23
2019-01-05T09:59:53.347Z,5.20
2019-01-05T10:03:34.755Z,7.77
2019-01-05T10:07:26.434Z,5.17
2019-01-05T10:11:15.696Z,4.90
2019-01-05T10:14:49.131Z,6.13
2019-01-05T10:17:59.014Z,5.83
2019-01-05T10:21:15.608Z,5.77
2019-01-05T10:24:56.806Z,5.67
2019-01-05T10:28:31.370Z,5.87
2019-01-05T10:32:09.875Z,5.20
2019-01-05T10:35:37.854Z,4.53
2019-01-05T10:39:03.505Z,5.10
2019-01-05T10:42:32.603Z,5.13
2019-01-05T10:46:06.001Z,4.93
2019-01-05T10:49:36.952Z,7.13
2019-01-05T10:53:32.873Z,8.67
2019-01-05T10:56:54.159Z,8.10
2019-01-05T11:00:44.001Z,5.53
2019-01-05T11:04:11.200Z,5.60
2019-01-05T11:08:06.179Z,5.03
2019-01-05T11:12:02.025Z,4.53
2019-01-05T11:15:27.248Z,7.50
2019-01-05T11:18:41.758Z,5.30
2019-01-05T11:21:58.411Z,5.47
2019-01-05T11:25:20.440Z,6.47
2019-01-05T11:29:00.689Z,6.30
2019-01-05T11:32:09.854Z,5.37
2019-01-05T11:35:24.345Z,6.60
2019-01-05T11:39:16.539Z,6.67
2019-01-05T11:42:43.063Z,4.90
2019-01-05T11:46:12.249Z,5.97
2019-01-05T11:49:38.365Z,6.37
2019-01-05T11:53:10.108Z,7.53
2019-01-05T11:56:30.858Z,5.37
2019-01-05T11:59:49.607Z,4.67
2019-01-05T12:03:32.793Z,5.07
2019-01-05T12:06:57.972Z,8.10
2019-01-05T12:10:36.363Z,6.50
2019-01-05T12:14:01.946Z,6.87
2019-01-05T12:17:26.861Z,4.97
2019-01-05T12:20:59.246Z,5.33
2019-01-05T12:24:39.405Z,5.07
2019-01-05T12:28:05.346Z,5.77
2019-01-05T12:31:37.076Z,5.33
2019-01-05T12:35:25.002Z,5.83
2019-01-05T12:38:55.218Z,9.83
2019-01-05T12:42:33.216Z,5.87
2019-01-05T12:45:54.366Z,6.53
2019-01-05T12:49:12.690Z,5.37
2019-01-05T12:52:40.196Z,5.23
2019-01-05T12:56:30.664Z,5.50
2019-01-05T13:00:06.013Z,22.97
2019-01-05T13:03:39.650Z,10.17
2019-01-05T13:06:59.126Z,6.70
2019-01-05T13:10:40.835Z,6.40
2019-01-05T13:14:17.588Z,5.03
2019-01-05T13:18:00.445Z,6.07
2019-01-05T13:21:35.436Z,9.57
2019-01-05T13:25:33.170Z,7.80
2019-01-05T13:28:59.333Z,8.30
2019-01-05T13:32:24.422Z,8.63
2019-01-05T13:35:29.775Z,7.40
2019-01-05T13:39:01.733Z,10.07
2019-01-05T13:42:36.080Z,9.60
2019-01-05T13:46:38.244Z,10.20
2019-01-05T13:50:09.612Z,7.30
2019-01-05T13:53:23.424Z,7.50
2019-01-05T13:56:22.227Z,8.23
2019-01-05T13:59:12.055Z,8.10
2019-01-05T14:02:21.411Z,10.67
2019-01-05T14:05:14.367Z,12.73
2019-01-05T14:08:23.112Z,8.33
2019-01-05T14:11:12.161Z,12.97
2019-01-05T14:14:01.126Z,12.73
2019-01-05T14:17:03.428Z,10.50
2019-01-05T14:19:53.598Z,9.03
2019-01-05T14:22:42.364Z,14.67
2019-01-05T14:25:31.544Z,16.20
2019-01-05T14:28:31.845Z,11.50
2019-01-05T14:31:21.011Z,15.27
2019-01-05T14:34:11.460Z,16.97
2019-01-05T14:37:04.418Z,15.57
2019-01-05T14:39:52.048Z,16.47
2019-01-05T14:42:54.876Z,17.27
2019-01-05T14:45:46.447Z,17.17
2019-01-05T14:48:35.846Z,17.23
2019-01-05T14:51:26.589Z,16.13
2019-01-05T14:54:17.204Z,13.87
2019-01-05T14:57:06.473Z,14.27
2019-01-05T15:00:02.745Z,15.00
2019-01-05T15:02:54.641Z,13.53
2019-01-05T15:05:45.309Z,15.30
2019-01-05T15:08:35.141Z,19.20
2019-01-05T15:11:24.261Z,15.33
2019-01-05T15:14:12.594Z,21.30
2019-01-05T15:17:02.394Z,18.23
2019-01-05T15:19:53.338Z,19.17
2019-01-05T15:22:42.290Z,22.43
2019-01-05T15:25:35.887Z,20.27
2019-01-05T15:28:32.563Z,26.77
2019-01-05T15:31:32.318Z,17.37
2019-01-05T15:34:42.030Z,24.47
2019-01-05T15:37:31.743Z,18.63
2019-01-05T15:40:26.667Z,21.10
2019-01-05T15:43:16.373Z,16.03
2019-01-05T15:46:09.571Z,21.27
2019-01-05T15:49:14.867Z,19.00
2019-01-05T15:52:14.070Z,15.53
2019-01-05T15:55:04.326Z,22.63
2019-01-05T15:57:53.619Z,22.77
2019-01-05T16:00:42.350Z,22.30
2019-01-05T16:03:32.490Z,16.77
2019-01-05T16:06:22.678Z,15.47
2019-01-05T16:09:11.403Z,24.40
2019-01-05T16:12:00.550Z,26.27
2019-01-05T16:14:49.545Z,21.43
2019-01-05T16:17:48.962Z,21.37
2019-01-05T16:20:37.676Z,25.43
2019-01-05T16:23:46.581Z,21.10
2019-01-05T16:26:36.455Z,26.40
2019-01-05T16:29:17.743Z,22.23
2019-01-05T16:32:06.533Z,20.73
2019-01-05T16:35:00.250Z,21.83
2019-01-05T16:37:48.905Z,20.90
2019-01-05T16:40:42.235Z,18.27
2019-01-05T16:43:31.860Z,22.93
2019-01-05T16:46:21.093Z,18.47
2019-01-05T16:49:20.004Z,21.87
2019-01-05T16:52:09.022Z,19.40
2019-01-05T16:54:58.108Z,22.90
2019-01-05T16:57:47.226Z,16.33
2019-01-05T17:00:36.026Z,21.67
2019-01-05T17:03:31.992Z,23.47
2019-01-05T17:06:22.237Z,21.27
2019-01-05T17:09:21.599Z,21.40
2019-01-05T17:12:14.626Z,17.47
2019-01-05T17:15:03.672Z,20.17
2019-01-05T17:17:55.223Z,22.90
2019-01-05T17:20:51.323Z,22.53
2019-01-05T17:23:40.471Z,25.80
2019-01-05T17:26:29.711Z,18.37
2019-01-05T17:29:33.210Z,18.27
2019-01-05T17:32:38.581Z,27.13
2019-01-05T17:35:27.451Z,27.57
2019-01-05T17:38:20.382Z,21.00
2019-01-05T17:41:09.175Z,19.60
2019-01-05T17:43:58.291Z,23.23
2019-01-05T17:46:39.885Z,23.90
2019-01-05T17:49:30.041Z,28.50
2019-01-05T17:52:19.650Z,18.23
2019-01-05T17:55:19.015Z,22.97
2019-01-05T17:58:21.848Z,21.63
2019-01-05T18:01:11.310Z,24.93
2019-01-05T18:04:04.925Z,25.50
2019-01-05T18:06:51.344Z,23.03
2019-01-05T18:09:41.036Z,22.57
2019-01-05T18:12:34.863Z,23.23
2019-01-05T18:15:25.595Z,23.73
2019-01-05T18:18:15.322Z,27.67
2019-01-05T18:21:08.620Z,30.53
2019-01-05T18:24:14.748Z,24.37
2019-01-05T18:27:12.125Z,25.70
2019-01-05T18:30:08.770Z,26.23
2019-01-05T18:33:06.419Z,25.43
2019-01-05T18:35:55.833Z,26.37
2019-01-05T18:38:53.169Z,30.57
2019-01-05T18:41:54.997Z,23.67
2019-01-05T18:44:45.358Z,23.10
2019-01-05T18:47:42.177Z,23.30
2019-01-05T18:50:31.933Z,27.97
2019-01-05T18:53:31.597Z,27.47
2019-01-05T18:56:22.397Z,15.57
2019-01-05T18:59:11.626Z,25.63
2019-01-05T19:02:14.575Z,22.00
2019-01-05T19:05:03.903Z,19.00
2019-01-05T19:08:01.535Z,20.30
2019-01-05T19:10:59.442Z,18.63
2019-01-05T19:13:57.602Z,15.43
2019-01-05T19:16:50.920Z,19.30
2019-01-05T19:19:53.273Z,13.90
2019-01-05T19:22:46.515Z,13.80
2019-01-05T19:25:32.445Z,39.77
2019-01-05T19:28:28.593Z,15.00
2019-01-05T19:31:18.170Z,9.10
2019-01-05T19:34:20.275Z,11.50
2019-01-05T19:37:13.696Z,10.97
2019-01-05T19:40:08.928Z,7.43
2019-01-05T19:43:03.305Z,6.40
2019-01-05T19:45:52.965Z,11.27
2019-01-05T19:48:42.323Z,5.80
2019-01-05T19:51:43.686Z,8.13
2019-01-05T19:54:50.975Z,7.97
2019-01-05T19:57:53.598Z,30.63
2019-01-05T20:00:42.455Z,6.50
2019-01-05T20:03:46.230Z,7.27
2019-01-05T20:06:35.152Z,5.70
2019-01-05T20:09:35.214Z,4.93
2019-01-05T20:12:33.082Z,5.10
2019-01-05T20:15:28.588Z,6.70
2019-01-05T20:18:37.246Z,5.80
2019-01-05T20:21:30.687Z,6.10
2019-01-05T20:24:19.606Z,4.77
2019-01-05T20:27:18.349Z,5.33
2019-01-05T20:30:14.665Z,6.60
2019-01-05T20:33:07.626Z,5.50
2019-01-05T20:36:06.834Z,7.20
2019-01-05T20:38:56.975Z,6.03
2019-01-05T20:41:46.111Z,5.30
2019-01-05T20:44:35.224Z,7.40
2019-01-05T20:47:24.314Z,7.00
2019-01-05T20:50:20.616Z,8.50
2019-01-05T20:53:10.767Z,6.10
2019-01-05T20:56:14.205Z,10.77
2019-01-05T20:59:03.529Z,9.17
2019-01-05T21:02:12.180Z,5.50
2019-01-05T21:04:58.359Z,6.47
2019-01-05T21:07:57.867Z,6.27
2019-01-05T21:10:57.886Z,6.87
2019-01-05T21:13:51.392Z,5.90
2019-01-05T21:16:42.028Z,6.17
2019-01-05T21:19:44.221Z,6.23
2019-01-05T21:22:45.148Z,6.37
2019-01-05T21:25:36.371Z,7.57
2019-01-05T21:28:32.640Z,5.97
2019-01-05T21:31:25.551Z,5.30
2019-01-05T21:34:09.196Z,5.53
2019-01-05T21:37:02.327Z,5.43
2019-01-05T21:40:01.461Z,6.10
2019-01-05T21:43:09.691Z,5.60
2019-01-05T21:46:15.090Z,5.80
2019-01-05T21:49:14.582Z,4.90
2019-01-05T21:52:04.761Z,5.23
2019-01-05T21:54:57.993Z,5.30
2019-01-05T21:57:48.439Z,5.20
2019-01-05T22:00:37.538Z,5.47
2019-01-05T22:03:26.520Z,5.07
2019-01-05T22:06:19.714Z,4.93
2019-01-05T22:09:25.755Z,5.10
2019-01-05T22:12:14.580Z,4.67
2019-01-05T22:15:03.439Z,4.53
2019-01-05T22:17:59.179Z,4.93
2019-01-05T22:20:55.380Z,4.50
2019-01-05T22:23:44.456Z,4.83
2019-01-05T22:26:46.766Z,4.53
2019-01-05T22:29:35.709Z,5.00
2019-01-05T22:32:25.302Z,4.93
2019-01-05T22:35:15.006Z,4.87
2019-01-05T22:38:03.989Z,4.20
2019-01-05T22:41:06.327Z,4.50
2019-01-05T22:43:56.434Z,4.33
2019-01-05T22:46:45.654Z,5.10
2019-01-05T22:49:47.045Z,4.67
2019-01-05T22:52:37.212Z,5.30
2019-01-05T22:55:28.358Z,4.90
2019-01-05T22:58:34.659Z,4.73
2019-01-05T23:01:33.815Z,6.80
2019-01-05T23:04:22.583Z,4.37
2019-01-05T23:07:24.834Z,4.90
2019-01-05T23:10:33.392Z,5.10
2019-01-05T23:13:35.553Z,4.83
2019-01-05T23:16:24.805Z,5.30
2019-01-05T23:19:18.078Z,4.23
2019-01-05T23:22:16.337Z,4.63
2019-01-05T23:25:01.046Z,5.20
2019-01-05T23:27:46.259Z,5.77
2019-01-05T23:30:51.735Z,4.90
2019-01-05T23:33:47.909Z,5.67
2019-01-05T23:36:43.952Z,4.90
2019-01-05T23:39:33.007Z,5.27
2019-01-05T23:42:32.215Z,5.03
2019-01-05T23:45:29.403Z,4.77
2019-01-05T23:48:18.212Z,5.07
2019-01-05T23:51:07.220Z,4.73
2019-01-05T23:53:56.129Z,5.70
2019-01-05T23:56:45.315Z,4.93
2019-01-05T23:59:33.858Z,5.47
